sensor_id;sensor_type;location;lat;lon;timestamp;P1;durP1;ratioP1;P2;durP2;ratioP2
6479;SDS011;71753;48.772;9.148;2024-02-26T00:00:52;2.67;;;1.90;;
6479;SDS011;71753;48.772;9.148;2024-02-26T00:03:20;2.43;;;1.80;;
6479;SDS011;71753;48.772;9.148;2024-02-26T00:05:47;2.00;;;1.70;;
6479;SDS011;71753;48.772;9.148;2024-02-26T00:08:13;1.90;;;1.70;;
6479;SDS011;71753;48.772;9.148;2024-02-26T00:10:40;1.70;;;1.50;;
6479;SDS011;71753;48.772;9.148;2024-02-26T00:13:07;2.27;;;1.87;;
6479;SDS011;71753;48.772;9.148;2024-02-26T00:15:34;2.20;;;1.50;;
6479;SDS011;71753;48.772;9.148;2024-02-26T00:18:01;1.97;;;1.73;;
6479;SDS011;71753;48.772;9.148;2024-02-26T00:20:29;2.67;;;1.87;;
6479;SDS011;71753;48.772;9.148;2024-02-26T00:22:55;1.97;;;1.70;;
6479;SDS011;71753;48.772;9.148;2024-02-26T00:25:22;2.20;;;1.90;;
6479;SDS011;71753;48.772;9.148;2024-02-26T00:27:49;1.90;;;1.60;;
6479;SDS011;71753;48.772;9.148;2024-02-26T00:30:15;2.37;;;1.60;;
6479;SDS011;71753;48.772;9.148;2024-02-26T00:32:42;2.47;;;1.83;;
6479;SDS011;71753;48.772;9.148;2024-02-26T00:35:09;2.73;;;1.70;;
6479;SDS011;71753;48.772;9.148;2024-02-26T00:37:37;2.00;;;1.80;;
6479;SDS011;71753;48.772;9.148;2024-02-26T00:40:04;2.03;;;1.80;;
6479;SDS011;71753;48.772;9.148;2024-02-26T00:42:33;2.43;;;1.77;;
6479;SDS011;71753;48.772;9.148;2024-02-26T00:45:00;4.80;;;1.63;;
6479;SDS011;71753;48.772;9.148;2024-02-26T00:47:27;2.83;;;1.80;;
6479;SDS011;71753;48.772;9.148;2024-02-26T00:49:53;2.03;;;1.80;;
6479;SDS011;71753;48.772;9.148;2024-02-26T00:52:20;1.90;;;1.60;;
6479;SDS011;71753;48.772;9.148;2024-02-26T00:54:48;2.60;;;1.63;;
6479;SDS011;71753;48.772;9.148;2024-02-26T00:57:15;1.97;;;1.60;;
6479;SDS011;71753;48.772;9.148;2024-02-26T00:59:41;1.73;;;1.53;;
6479;SDS011;71753;48.772;9.148;2024-02-26T01:02:08;1.73;;;1.40;;
6479;SDS011;71753;48.772;9.148;2024-02-26T01:04:35;1.93;;;1.70;;
6479;SDS011;71753;48.772;9.148;2024-02-26T01:07:01;1.70;;;1.60;;
6479;SDS011;71753;48.772;9.148;2024-02-26T01:09:28;2.47;;;1.70;;
6479;SDS011;71753;48.772;9.148;2024-02-26T01:11:56;3.47;;;1.80;;
6479;SDS011;71753;48.772;9.148;2024-02-26T01:14:23;2.03;;;1.60;;
6479;SDS011;71753;48.772;9.148;2024-02-26T01:16:50;2.07;;;1.67;;
6479;SDS011;71753;48.772;9.148;2024-02-26T01:19:16;3.17;;;1.67;;
6479;SDS011;71753;48.772;9.148;2024-02-26T01:21:43;2.47;;;1.70;;
6479;SDS011;71753;48.772;9.148;2024-02-26T01:24:09;2.50;;;1.73;;
6479;SDS011;71753;48.772;9.148;2024-02-26T01:26:36;1.90;;;1.53;;
6479;SDS011;71753;48.772;9.148;2024-02-26T01:29:04;1.90;;;1.70;;
6479;SDS011;71753;48.772;9.148;2024-02-26T01:31:31;1.83;;;1.70;;
6479;SDS011;71753;48.772;9.148;2024-02-26T01:33:57;1.70;;;1.50;;
6479;SDS011;71753;48.772;9.148;2024-02-26T01:36:24;2.23;;;1.70;;
6479;SDS011;71753;48.772;9.148;2024-02-26T01:38:51;2.00;;;1.50;;
6479;SDS011;71753;48.772;9.148;2024-02-26T01:41:18;2.03;;;1.70;;
6479;SDS011;71753;48.772;9.148;2024-02-26T01:43:44;2.43;;;1.80;;
6479;SDS011;71753;48.772;9.148;2024-02-26T01:46:14;1.90;;;1.77;;
6479;SDS011;71753;48.772;9.148;2024-02-26T01:48:42;2.20;;;1.80;;
6479;SDS011;71753;48.772;9.148;2024-02-26T01:51:10;1.90;;;1.67;;
6479;SDS011;71753;48.772;9.148;2024-02-26T01:53:40;2.30;;;1.53;;
6479;SDS011;71753;48.772;9.148;2024-02-26T01:56:07;2.20;;;1.80;;
6479;SDS011;71753;48.772;9.148;2024-02-26T01:58:34;1.90;;;1.70;;
6479;SDS011;71753;48.772;9.148;2024-02-26T02:01:02;2.03;;;1.70;;
6479;SDS011;71753;48.772;9.148;2024-02-26T02:03:30;2.53;;;1.67;;
6479;SDS011;71753;48.772;9.148;2024-02-26T02:05:57;2.17;;;1.80;;
6479;SDS011;71753;48.772;9.148;2024-02-26T02:08:24;2.50;;;1.70;;
6479;SDS011;71753;48.772;9.148;2024-02-26T02:10:51;2.17;;;1.60;;
6479;SDS011;71753;48.772;9.148;2024-02-26T02:13:17;2.70;;;1.87;;
6479;SDS011;71753;48.772;9.148;2024-02-26T02:15:44;2.83;;;1.53;;
6479;SDS011;71753;48.772;9.148;2024-02-26T02:18:10;2.93;;;1.80;;
6479;SDS011;71753;48.772;9.148;2024-02-26T02:20:38;2.33;;;1.80;;
6479;SDS011;71753;48.772;9.148;2024-02-26T02:23:05;3.03;;;1.90;;
6479;SDS011;71753;48.772;9.148;2024-02-26T02:25:32;2.03;;;1.80;;
6479;SDS011;71753;48.772;9.148;2024-02-26T02:27:58;2.77;;;1.80;;
6479;SDS011;71753;48.772;9.148;2024-02-26T02:30:26;1.87;;;1.60;;
6479;SDS011;71753;48.772;9.148;2024-02-26T02:32:55;2.13;;;1.93;;
6479;SDS011;71753;48.772;9.148;2024-02-26T02:35:23;2.17;;;1.70;;
6479;SDS011;71753;48.772;9.148;2024-02-26T02:37:51;2.23;;;1.63;;
6479;SDS011;71753;48.772;9.148;2024-02-26T02:40:18;1.97;;;1.50;;
6479;SDS011;71753;48.772;9.148;2024-02-26T02:42:45;1.83;;;1.40;;
6479;SDS011;71753;48.772;9.148;2024-02-26T02:45:11;1.83;;;1.50;;
6479;SDS011;71753;48.772;9.148;2024-02-26T02:47:38;1.70;;;1.60;;
6479;SDS011;71753;48.772;9.148;2024-02-26T02:50:05;1.50;;;1.40;;
6479;SDS011;71753;48.772;9.148;2024-02-26T02:52:32;2.20;;;1.50;;
6479;SDS011;71753;48.772;9.148;2024-02-26T02:55:00;1.50;;;1.40;;
6479;SDS011;71753;48.772;9.148;2024-02-26T02:57:27;1.40;;;1.30;;
6479;SDS011;71753;48.772;9.148;2024-02-26T02:59:54;1.27;;;1.17;;
6479;SDS011;71753;48.772;9.148;2024-02-26T03:02:21;1.43;;;1.33;;
6479;SDS011;71753;48.772;9.148;2024-02-26T03:04:49;1.80;;;1.50;;
6479;SDS011;71753;48.772;9.148;2024-02-26T03:07:16;1.33;;;1.20;;
6479;SDS011;71753;48.772;9.148;2024-02-26T03:09:43;1.30;;;1.20;;
6479;SDS011;71753;48.772;9.148;2024-02-26T03:12:11;1.43;;;1.20;;
6479;SDS011;71753;48.772;9.148;2024-02-26T03:14:38;2.80;;;1.30;;
6479;SDS011;71753;48.772;9.148;2024-02-26T03:17:04;1.60;;;1.30;;
6479;SDS011;71753;48.772;9.148;2024-02-26T03:19:31;1.57;;;1.00;;
6479;SDS011;71753;48.772;9.148;2024-02-26T03:21:58;2.43;;;1.13;;
6479;SDS011;71753;48.772;9.148;2024-02-26T03:24:25;1.17;;;1.13;;
6479;SDS011;71753;48.772;9.148;2024-02-26T03:26:51;1.30;;;1.20;;
6479;SDS011;71753;48.772;9.148;2024-02-26T03:29:19;3.07;;;1.40;;
6479;SDS011;71753;48.772;9.148;2024-02-26T03:31:46;1.30;;;1.20;;
6479;SDS011;71753;48.772;9.148;2024-02-26T03:34:12;1.20;;;1.10;;
6479;SDS011;71753;48.772;9.148;2024-02-26T03:36:39;1.37;;;1.10;;
6479;SDS011;71753;48.772;9.148;2024-02-26T03:39:06;1.23;;;1.13;;
6479;SDS011;71753;48.772;9.148;2024-02-26T03:41:34;1.30;;;1.20;;
6479;SDS011;71753;48.772;9.148;2024-02-26T03:44:01;1.30;;;1.20;;
6479;SDS011;71753;48.772;9.148;2024-02-26T03:46:29;1.10;;;1.00;;
6479;SDS011;71753;48.772;9.148;2024-02-26T03:48:55;1.27;;;1.10;;
6479;SDS011;71753;48.772;9.148;2024-02-26T03:51:22;1.60;;;1.27;;
6479;SDS011;71753;48.772;9.148;2024-02-26T03:53:49;2.40;;;1.20;;
6479;SDS011;71753;48.772;9.148;2024-02-26T03:56:15;1.67;;;1.40;;
6479;SDS011;71753;48.772;9.148;2024-02-26T03:58:42;1.70;;;1.30;;
6479;SDS011;71753;48.772;9.148;2024-02-26T04:01:09;1.87;;;1.33;;
6479;SDS011;71753;48.772;9.148;2024-02-26T04:03:37;2.03;;;1.50;;
6479;SDS011;71753;48.772;9.148;2024-02-26T04:06:04;2.53;;;1.50;;
6479;SDS011;71753;48.772;9.148;2024-02-26T04:08:30;2.10;;;1.77;;
6479;SDS011;71753;48.772;9.148;2024-02-26T04:10:57;1.93;;;1.67;;
6479;SDS011;71753;48.772;9.148;2024-02-26T04:13:24;2.30;;;1.70;;
6479;SDS011;71753;48.772;9.148;2024-02-26T04:15:50;2.23;;;1.80;;
6479;SDS011;71753;48.772;9.148;2024-02-26T04:18:17;2.27;;;1.73;;
6479;SDS011;71753;48.772;9.148;2024-02-26T04:20:45;1.90;;;1.70;;
6479;SDS011;71753;48.772;9.148;2024-02-26T04:23:11;2.10;;;1.83;;
6479;SDS011;71753;48.772;9.148;2024-02-26T04:25:38;3.87;;;2.00;;
6479;SDS011;71753;48.772;9.148;2024-02-26T04:28:05;1.83;;;1.70;;
6479;SDS011;71753;48.772;9.148;2024-02-26T04:30:31;3.87;;;1.97;;
6479;SDS011;71753;48.772;9.148;2024-02-26T04:32:58;3.57;;;2.00;;
6479;SDS011;71753;48.772;9.148;2024-02-26T04:35:25;2.80;;;1.87;;
6479;SDS011;71753;48.772;9.148;2024-02-26T04:37:53;2.27;;;2.00;;
6479;SDS011;71753;48.772;9.148;2024-02-26T04:40:19;3.27;;;2.17;;
6479;SDS011;71753;48.772;9.148;2024-02-26T04:42:46;3.07;;;2.27;;
6479;SDS011;71753;48.772;9.148;2024-02-26T04:45:13;3.20;;;2.70;;
6479;SDS011;71753;48.772;9.148;2024-02-26T04:47:39;3.17;;;2.00;;
6479;SDS011;71753;48.772;9.148;2024-02-26T04:50:06;2.37;;;1.90;;
6479;SDS011;71753;48.772;9.148;2024-02-26T04:52:33;2.27;;;1.93;;
6479;SDS011;71753;48.772;9.148;2024-02-26T04:55:01;3.23;;;2.40;;
6479;SDS011;71753;48.772;9.148;2024-02-26T04:57:28;2.97;;;2.20;;
6479;SDS011;71753;48.772;9.148;2024-02-26T04:59:55;3.57;;;2.40;;
6479;SDS011;71753;48.772;9.148;2024-02-26T05:02:21;2.90;;;1.90;;
6479;SDS011;71753;48.772;9.148;2024-02-26T05:04:49;2.70;;;1.77;;
6479;SDS011;71753;48.772;9.148;2024-02-26T05:07:16;1.70;;;1.60;;
6479;SDS011;71753;48.772;9.148;2024-02-26T05:09:43;1.93;;;1.67;;
6479;SDS011;71753;48.772;9.148;2024-02-26T05:12:12;2.63;;;1.60;;
6479;SDS011;71753;48.772;9.148;2024-02-26T05:14:39;2.73;;;1.60;;
6479;SDS011;71753;48.772;9.148;2024-02-26T05:17:05;2.27;;;1.70;;
6479;SDS011;71753;48.772;9.148;2024-02-26T05:19:32;2.00;;;1.70;;
6479;SDS011;71753;48.772;9.148;2024-02-26T05:21:59;2.13;;;1.70;;
6479;SDS011;71753;48.772;9.148;2024-02-26T05:24:25;4.00;;;2.00;;
6479;SDS011;71753;48.772;9.148;2024-02-26T05:26:53;3.27;;;2.00;;
6479;SDS011;71753;48.772;9.148;2024-02-26T05:29:21;2.30;;;1.90;;
6479;SDS011;71753;48.772;9.148;2024-02-26T05:31:47;2.73;;;1.90;;
6479;SDS011;71753;48.772;9.148;2024-02-26T05:34:14;2.07;;;1.70;;
6479;SDS011;71753;48.772;9.148;2024-02-26T05:36:41;2.30;;;1.90;;
6479;SDS011;71753;48.772;9.148;2024-02-26T05:39:07;2.73;;;2.10;;
6479;SDS011;71753;48.772;9.148;2024-02-26T05:41:37;2.30;;;2.00;;
6479;SDS011;71753;48.772;9.148;2024-02-26T05:44:03;2.23;;;1.80;;
6479;SDS011;71753;48.772;9.148;2024-02-26T05:46:32;2.57;;;2.00;;
6479;SDS011;71753;48.772;9.148;2024-02-26T05:48:58;2.50;;;1.80;;
6479;SDS011;71753;48.772;9.148;2024-02-26T05:51:25;2.70;;;1.90;;
6479;SDS011;71753;48.772;9.148;2024-02-26T05:53:51;2.07;;;1.73;;
6479;SDS011;71753;48.772;9.148;2024-02-26T05:56:20;2.80;;;1.90;;
6479;SDS011;71753;48.772;9.148;2024-02-26T05:58:47;2.47;;;1.70;;
6479;SDS011;71753;48.772;9.148;2024-02-26T06:01:15;2.00;;;1.70;;
6479;SDS011;71753;48.772;9.148;2024-02-26T06:03:43;3.50;;;1.80;;
6479;SDS011;71753;48.772;9.148;2024-02-26T06:06:10;2.50;;;1.67;;
6479;SDS011;71753;48.772;9.148;2024-02-26T06:08:37;2.53;;;1.93;;
6479;SDS011;71753;48.772;9.148;2024-02-26T06:11:04;2.43;;;1.97;;
6479;SDS011;71753;48.772;9.148;2024-02-26T06:13:31;2.10;;;1.80;;
6479;SDS011;71753;48.772;9.148;2024-02-26T06:15:59;2.50;;;1.90;;
6479;SDS011;71753;48.772;9.148;2024-02-26T06:18:26;2.67;;;1.80;;
6479;SDS011;71753;48.772;9.148;2024-02-26T06:20:54;2.20;;;1.87;;
6479;SDS011;71753;48.772;9.148;2024-02-26T06:23:21;3.20;;;2.07;;
6479;SDS011;71753;48.772;9.148;2024-02-26T06:25:47;1.97;;;1.77;;
6479;SDS011;71753;48.772;9.148;2024-02-26T06:28:14;4.27;;;2.10;;
6479;SDS011;71753;48.772;9.148;2024-02-26T06:30:41;2.77;;;2.20;;
6479;SDS011;71753;48.772;9.148;2024-02-26T06:33:07;2.80;;;2.10;;
6479;SDS011;71753;48.772;9.148;2024-02-26T06:35:34;2.40;;;1.80;;
6479;SDS011;71753;48.772;9.148;2024-02-26T06:38:02;3.27;;;2.00;;
6479;SDS011;71753;48.772;9.148;2024-02-26T06:40:29;3.50;;;2.43;;
6479;SDS011;71753;48.772;9.148;2024-02-26T06:42:56;3.43;;;2.20;;
6479;SDS011;71753;48.772;9.148;2024-02-26T06:45:23;3.07;;;2.10;;
6479;SDS011;71753;48.772;9.148;2024-02-26T06:47:49;2.70;;;2.07;;
6479;SDS011;71753;48.772;9.148;2024-02-26T06:50:16;3.10;;;2.30;;
6479;SDS011;71753;48.772;9.148;2024-02-26T06:52:43;2.77;;;2.13;;
6479;SDS011;71753;48.772;9.148;2024-02-26T06:55:11;2.70;;;2.07;;
6479;SDS011;71753;48.772;9.148;2024-02-26T06:57:38;3.27;;;2.23;;
6479;SDS011;71753;48.772;9.148;2024-02-26T07:00:05;3.07;;;2.20;;
6479;SDS011;71753;48.772;9.148;2024-02-26T07:02:32;3.40;;;2.20;;
6479;SDS011;71753;48.772;9.148;2024-02-26T07:04:59;2.90;;;2.10;;
6479;SDS011;71753;48.772;9.148;2024-02-26T07:07:26;3.40;;;2.30;;
6479;SDS011;71753;48.772;9.148;2024-02-26T07:09:52;2.77;;;2.00;;
6479;SDS011;71753;48.772;9.148;2024-02-26T07:12:21;4.30;;;2.10;;
6479;SDS011;71753;48.772;9.148;2024-02-26T07:14:50;3.63;;;2.50;;
6479;SDS011;71753;48.772;9.148;2024-02-26T07:17:17;5.17;;;2.50;;
6479;SDS011;71753;48.772;9.148;2024-02-26T07:19:44;3.57;;;2.40;;
6479;SDS011;71753;48.772;9.148;2024-02-26T07:22:11;5.07;;;2.73;;
6479;SDS011;71753;48.772;9.148;2024-02-26T07:24:38;5.10;;;2.40;;
6479;SDS011;71753;48.772;9.148;2024-02-26T07:27:05;6.97;;;3.10;;
6479;SDS011;71753;48.772;9.148;2024-02-26T07:29:33;3.73;;;2.60;;
6479;SDS011;71753;48.772;9.148;2024-02-26T07:32:00;3.57;;;2.20;;
6479;SDS011;71753;48.772;9.148;2024-02-26T07:34:27;3.67;;;2.50;;
6479;SDS011;71753;48.772;9.148;2024-02-26T07:36:54;4.40;;;2.70;;
6479;SDS011;71753;48.772;9.148;2024-02-26T07:39:21;6.43;;;3.03;;
6479;SDS011;71753;48.772;9.148;2024-02-26T07:41:48;3.50;;;2.23;;
6479;SDS011;71753;48.772;9.148;2024-02-26T07:44:16;3.03;;;2.23;;
6479;SDS011;71753;48.772;9.148;2024-02-26T07:46:44;3.30;;;2.40;;
6479;SDS011;71753;48.772;9.148;2024-02-26T07:49:11;3.13;;;2.30;;
6479;SDS011;71753;48.772;9.148;2024-02-26T07:51:38;2.80;;;2.20;;
6479;SDS011;71753;48.772;9.148;2024-02-26T07:54:04;3.43;;;2.40;;
6479;SDS011;71753;48.772;9.148;2024-02-26T07:56:31;2.87;;;1.70;;
6479;SDS011;71753;48.772;9.148;2024-02-26T07:58:58;2.30;;;1.70;;
6479;SDS011;71753;48.772;9.148;2024-02-26T08:01:25;2.47;;;1.80;;
6479;SDS011;71753;48.772;9.148;2024-02-26T08:03:53;2.63;;;2.00;;
6479;SDS011;71753;48.772;9.148;2024-02-26T08:06:20;2.90;;;2.30;;
6479;SDS011;71753;48.772;9.148;2024-02-26T08:08:47;3.33;;;2.40;;
6479;SDS011;71753;48.772;9.148;2024-02-26T08:11:14;2.73;;;2.20;;
6479;SDS011;71753;48.772;9.148;2024-02-26T08:13:41;3.73;;;2.70;;
6479;SDS011;71753;48.772;9.148;2024-02-26T08:16:07;5.10;;;2.40;;
6479;SDS011;71753;48.772;9.148;2024-02-26T08:18:34;5.37;;;2.70;;
6479;SDS011;71753;48.772;9.148;2024-02-26T08:21:02;4.17;;;2.50;;
6479;SDS011;71753;48.772;9.148;2024-02-26T08:23:29;3.53;;;2.40;;
6479;SDS011;71753;48.772;9.148;2024-02-26T08:25:56;3.00;;;2.37;;
6479;SDS011;71753;48.772;9.148;2024-02-26T08:28:23;3.17;;;2.07;;
6479;SDS011;71753;48.772;9.148;2024-02-26T08:30:50;3.67;;;2.40;;
6479;SDS011;71753;48.772;9.148;2024-02-26T08:33:19;2.93;;;2.10;;
6479;SDS011;71753;48.772;9.148;2024-02-26T08:35:46;3.77;;;2.50;;
6479;SDS011;71753;48.772;9.148;2024-02-26T08:38:14;3.13;;;2.33;;
6479;SDS011;71753;48.772;9.148;2024-02-26T08:40:40;3.83;;;2.20;;
6479;SDS011;71753;48.772;9.148;2024-02-26T08:43:07;2.67;;;2.00;;
6479;SDS011;71753;48.772;9.148;2024-02-26T08:45:34;3.07;;;2.30;;
6479;SDS011;71753;48.772;9.148;2024-02-26T08:48:02;2.67;;;1.80;;
6479;SDS011;71753;48.772;9.148;2024-02-26T08:50:29;3.17;;;1.83;;
6479;SDS011;71753;48.772;9.148;2024-02-26T08:52:56;2.57;;;1.93;;
6479;SDS011;71753;48.772;9.148;2024-02-26T08:55:24;2.63;;;1.80;;
6479;SDS011;71753;48.772;9.148;2024-02-26T08:57:50;2.83;;;2.03;;
6479;SDS011;71753;48.772;9.148;2024-02-26T09:00:18;2.03;;;1.70;;
6479;SDS011;71753;48.772;9.148;2024-02-26T09:02:45;2.20;;;1.80;;
6479;SDS011;71753;48.772;9.148;2024-02-26T09:05:13;4.97;;;1.63;;
6479;SDS011;71753;48.772;9.148;2024-02-26T09:07:40;2.00;;;1.70;;
6479;SDS011;71753;48.772;9.148;2024-02-26T09:10:08;2.57;;;1.87;;
6479;SDS011;71753;48.772;9.148;2024-02-26T09:12:37;1.83;;;1.43;;
6479;SDS011;71753;48.772;9.148;2024-02-26T09:15:05;2.27;;;1.87;;
6479;SDS011;71753;48.772;9.148;2024-02-26T09:17:32;2.43;;;1.60;;
6479;SDS011;71753;48.772;9.148;2024-02-26T09:19:59;2.70;;;1.70;;
6479;SDS011;71753;48.772;9.148;2024-02-26T09:22:26;2.07;;;1.70;;
6479;SDS011;71753;48.772;9.148;2024-02-26T09:24:55;2.17;;;1.90;;
6479;SDS011;71753;48.772;9.148;2024-02-26T09:27:21;3.27;;;1.80;;
6479;SDS011;71753;48.772;9.148;2024-02-26T09:29:50;3.07;;;1.70;;
6479;SDS011;71753;48.772;9.148;2024-02-26T09:32:16;6.87;;;1.67;;
6479;SDS011;71753;48.772;9.148;2024-02-26T09:34:44;4.10;;;1.90;;
6479;SDS011;71753;48.772;9.148;2024-02-26T09:37:10;3.13;;;2.10;;
6479;SDS011;71753;48.772;9.148;2024-02-26T09:39:38;3.13;;;2.33;;
6479;SDS011;71753;48.772;9.148;2024-02-26T09:42:04;3.27;;;1.90;;
6479;SDS011;71753;48.772;9.148;2024-02-26T09:44:34;3.77;;;2.23;;
6479;SDS011;71753;48.772;9.148;2024-02-26T09:47:08;4.40;;;2.60;;
6479;SDS011;71753;48.772;9.148;2024-02-26T09:49:36;2.97;;;2.40;;
6479;SDS011;71753;48.772;9.148;2024-02-26T09:52:04;4.63;;;2.83;;
6479;SDS011;71753;48.772;9.148;2024-02-26T09:54:32;3.73;;;2.80;;
6479;SDS011;71753;48.772;9.148;2024-02-26T09:57:00;4.57;;;2.70;;
6479;SDS011;71753;48.772;9.148;2024-02-26T09:59:29;3.83;;;2.53;;
6479;SDS011;71753;48.772;9.148;2024-02-26T10:02:00;4.17;;;2.50;;
6479;SDS011;71753;48.772;9.148;2024-02-26T10:04:29;4.07;;;3.07;;
6479;SDS011;71753;48.772;9.148;2024-02-26T10:06:57;5.70;;;2.80;;
6479;SDS011;71753;48.772;9.148;2024-02-26T10:09:26;4.70;;;2.77;;
6479;SDS011;71753;48.772;9.148;2024-02-26T10:11:53;3.90;;;2.80;;
6479;SDS011;71753;48.772;9.148;2024-02-26T10:14:20;4.10;;;2.87;;
6479;SDS011;71753;48.772;9.148;2024-02-26T10:16:47;5.37;;;2.77;;
6479;SDS011;71753;48.772;9.148;2024-02-26T10:19:24;7.10;;;2.73;;
6479;SDS011;71753;48.772;9.148;2024-02-26T10:21:55;5.43;;;3.00;;
6479;SDS011;71753;48.772;9.148;2024-02-26T10:24:23;3.80;;;2.63;;
6479;SDS011;71753;48.772;9.148;2024-02-26T10:26:50;5.37;;;2.97;;
6479;SDS011;71753;48.772;9.148;2024-02-26T10:29:18;4.40;;;2.93;;
6479;SDS011;71753;48.772;9.148;2024-02-26T10:31:45;6.97;;;2.70;;
6479;SDS011;71753;48.772;9.148;2024-02-26T10:34:11;2.90;;;2.30;;
6479;SDS011;71753;48.772;9.148;2024-02-26T10:36:38;4.63;;;2.87;;
6479;SDS011;71753;48.772;9.148;2024-02-26T10:39:07;2.77;;;2.20;;
6479;SDS011;71753;48.772;9.148;2024-02-26T10:41:34;3.43;;;2.53;;
6479;SDS011;71753;48.772;9.148;2024-02-26T10:44:01;3.80;;;2.40;;
6479;SDS011;71753;48.772;9.148;2024-02-26T10:46:28;3.07;;;2.17;;
6479;SDS011;71753;48.772;9.148;2024-02-26T10:48:55;4.30;;;2.50;;
6479;SDS011;71753;48.772;9.148;2024-02-26T10:51:25;3.53;;;2.10;;
6479;SDS011;71753;48.772;9.148;2024-02-26T10:53:54;3.33;;;2.07;;
6479;SDS011;71753;48.772;9.148;2024-02-26T10:56:26;2.67;;;2.33;;
6479;SDS011;71753;48.772;9.148;2024-02-26T10:58:54;3.30;;;2.30;;
6479;SDS011;71753;48.772;9.148;2024-02-26T11:01:22;3.57;;;2.37;;
6479;SDS011;71753;48.772;9.148;2024-02-26T11:03:50;4.47;;;2.47;;
6479;SDS011;71753;48.772;9.148;2024-02-26T11:06:18;6.17;;;2.70;;
6479;SDS011;71753;48.772;9.148;2024-02-26T11:08:47;3.77;;;2.50;;
6479;SDS011;71753;48.772;9.148;2024-02-26T11:11:15;3.57;;;2.23;;
6479;SDS011;71753;48.772;9.148;2024-02-26T11:13:44;3.67;;;2.40;;
6479;SDS011;71753;48.772;9.148;2024-02-26T11:16:14;3.70;;;2.30;;
6479;SDS011;71753;48.772;9.148;2024-02-26T11:18:44;2.87;;;2.30;;
6479;SDS011;71753;48.772;9.148;2024-02-26T11:21:13;4.87;;;2.70;;
6479;SDS011;71753;48.772;9.148;2024-02-26T11:23:41;3.30;;;2.50;;
6479;SDS011;71753;48.772;9.148;2024-02-26T11:26:08;3.83;;;2.40;;
6479;SDS011;71753;48.772;9.148;2024-02-26T11:28:37;3.13;;;2.40;;
6479;SDS011;71753;48.772;9.148;2024-02-26T11:31:06;4.33;;;2.50;;
6479;SDS011;71753;48.772;9.148;2024-02-26T11:33:34;4.53;;;2.57;;
6479;SDS011;71753;48.772;9.148;2024-02-26T11:36:01;3.00;;;2.13;;
6479;SDS011;71753;48.772;9.148;2024-02-26T11:38:29;4.73;;;2.40;;
6479;SDS011;71753;48.772;9.148;2024-02-26T11:40:55;4.27;;;2.10;;
6479;SDS011;71753;48.772;9.148;2024-02-26T11:43:33;3.07;;;2.30;;
6479;SDS011;71753;48.772;9.148;2024-02-26T11:46:25;2.90;;;2.10;;
6479;SDS011;71753;48.772;9.148;2024-02-26T11:48:54;3.13;;;2.20;;
6479;SDS011;71753;48.772;9.148;2024-02-26T11:51:24;2.10;;;1.80;;
6479;SDS011;71753;48.772;9.148;2024-02-26T11:53:52;2.20;;;1.90;;
6479;SDS011;71753;48.772;9.148;2024-02-26T11:56:22;3.93;;;2.00;;
6479;SDS011;71753;48.772;9.148;2024-02-26T11:58:53;2.73;;;2.03;;
6479;SDS011;71753;48.772;9.148;2024-02-26T12:01:36;2.90;;;2.03;;
6479;SDS011;71753;48.772;9.148;2024-02-26T12:04:13;3.40;;;2.07;;
6479;SDS011;71753;48.772;9.148;2024-02-26T12:06:43;2.80;;;2.20;;
6479;SDS011;71753;48.772;9.148;2024-02-26T12:09:11;3.40;;;2.17;;
6479;SDS011;71753;48.772;9.148;2024-02-26T12:11:39;3.57;;;2.10;;
6479;SDS011;71753;48.772;9.148;2024-02-26T12:14:05;3.40;;;2.10;;
6479;SDS011;71753;48.772;9.148;2024-02-26T12:16:38;2.80;;;2.10;;
6479;SDS011;71753;48.772;9.148;2024-02-26T12:19:08;3.77;;;2.03;;
6479;SDS011;71753;48.772;9.148;2024-02-26T12:21:36;2.67;;;1.97;;
6479;SDS011;71753;48.772;9.148;2024-02-26T12:24:07;3.03;;;2.07;;
6479;SDS011;71753;48.772;9.148;2024-02-26T12:26:36;2.67;;;2.10;;
6479;SDS011;71753;48.772;9.148;2024-02-26T12:29:03;2.37;;;1.80;;
6479;SDS011;71753;48.772;9.148;2024-02-26T12:31:30;5.30;;;2.20;;
6479;SDS011;71753;48.772;9.148;2024-02-26T12:33:59;3.80;;;2.10;;
6479;SDS011;71753;48.772;9.148;2024-02-26T12:36:26;3.77;;;2.30;;
6479;SDS011;71753;48.772;9.148;2024-02-26T12:38:53;2.67;;;1.90;;
6479;SDS011;71753;48.772;9.148;2024-02-26T12:41:20;2.10;;;1.77;;
6479;SDS011;71753;48.772;9.148;2024-02-26T12:43:49;2.60;;;1.80;;
6479;SDS011;71753;48.772;9.148;2024-02-26T12:46:16;3.03;;;2.10;;
6479;SDS011;71753;48.772;9.148;2024-02-26T12:48:43;2.53;;;1.90;;
6479;SDS011;71753;48.772;9.148;2024-02-26T12:51:12;2.80;;;1.97;;
6479;SDS011;71753;48.772;9.148;2024-02-26T12:53:40;2.90;;;2.03;;
6479;SDS011;71753;48.772;9.148;2024-02-26T12:56:07;1.90;;;1.63;;
6479;SDS011;71753;48.772;9.148;2024-02-26T12:58:36;2.87;;;2.00;;
6479;SDS011;71753;48.772;9.148;2024-02-26T13:01:05;4.37;;;1.90;;
6479;SDS011;71753;48.772;9.148;2024-02-26T13:03:32;3.50;;;2.23;;
6479;SDS011;71753;48.772;9.148;2024-02-26T13:06:00;2.43;;;1.73;;
6479;SDS011;71753;48.772;9.148;2024-02-26T13:08:31;3.30;;;2.20;;
6479;SDS011;71753;48.772;9.148;2024-02-26T13:10:58;2.10;;;1.80;;
6479;SDS011;71753;48.772;9.148;2024-02-26T13:13:26;3.33;;;1.87;;
6479;SDS011;71753;48.772;9.148;2024-02-26T13:16:00;2.30;;;1.70;;
6479;SDS011;71753;48.772;9.148;2024-02-26T13:18:28;2.40;;;1.80;;
6479;SDS011;71753;48.772;9.148;2024-02-26T13:21:06;2.63;;;1.80;;
6479;SDS011;71753;48.772;9.148;2024-02-26T13:23:35;3.40;;;1.70;;
6479;SDS011;71753;48.772;9.148;2024-02-26T13:26:02;2.77;;;1.80;;
6479;SDS011;71753;48.772;9.148;2024-02-26T13:28:29;2.40;;;1.67;;
6479;SDS011;71753;48.772;9.148;2024-02-26T13:30:56;1.90;;;1.60;;
6479;SDS011;71753;48.772;9.148;2024-02-26T13:33:25;2.57;;;1.40;;
6479;SDS011;71753;48.772;9.148;2024-02-26T13:35:53;1.70;;;1.40;;
6479;SDS011;71753;48.772;9.148;2024-02-26T13:38:20;1.80;;;1.30;;
6479;SDS011;71753;48.772;9.148;2024-02-26T13:40:48;1.60;;;1.30;;
6479;SDS011;71753;48.772;9.148;2024-02-26T13:43:16;2.03;;;1.40;;
6479;SDS011;71753;48.772;9.148;2024-02-26T13:45:43;1.40;;;1.20;;
6479;SDS011;71753;48.772;9.148;2024-02-26T13:48:11;1.30;;;1.20;;
6479;SDS011;71753;48.772;9.148;2024-02-26T13:50:39;1.20;;;1.10;;
6479;SDS011;71753;48.772;9.148;2024-02-26T13:53:06;2.17;;;1.30;;
6479;SDS011;71753;48.772;9.148;2024-02-26T13:55:33;2.53;;;1.10;;
6479;SDS011;71753;48.772;9.148;2024-02-26T13:58:01;2.10;;;1.20;;
6479;SDS011;71753;48.772;9.148;2024-02-26T14:00:28;1.17;;;1.07;;
6479;SDS011;71753;48.772;9.148;2024-02-26T14:02:57;1.90;;;1.00;;
6479;SDS011;71753;48.772;9.148;2024-02-26T14:05:24;1.20;;;1.10;;
6479;SDS011;71753;48.772;9.148;2024-02-26T14:07:51;1.40;;;1.23;;
6479;SDS011;71753;48.772;9.148;2024-02-26T14:10:21;1.30;;;1.20;;
6479;SDS011;71753;48.772;9.148;2024-02-26T14:12:49;1.37;;;1.27;;
6479;SDS011;71753;48.772;9.148;2024-02-26T14:15:17;1.50;;;1.20;;
6479;SDS011;71753;48.772;9.148;2024-02-26T14:17:44;1.83;;;1.23;;
6479;SDS011;71753;48.772;9.148;2024-02-26T14:20:18;1.60;;;1.37;;
6479;SDS011;71753;48.772;9.148;2024-02-26T14:22:45;1.53;;;1.30;;
6479;SDS011;71753;48.772;9.148;2024-02-26T14:25:12;2.10;;;1.60;;
6479;SDS011;71753;48.772;9.148;2024-02-26T14:27:38;1.53;;;1.33;;
6479;SDS011;71753;48.772;9.148;2024-02-26T14:30:06;2.23;;;1.40;;
6479;SDS011;71753;48.772;9.148;2024-02-26T14:32:34;1.63;;;1.20;;
6479;SDS011;71753;48.772;9.148;2024-02-26T14:35:03;1.83;;;1.30;;
6479;SDS011;71753;48.772;9.148;2024-02-26T14:37:31;1.53;;;1.27;;
6479;SDS011;71753;48.772;9.148;2024-02-26T14:39:58;1.90;;;1.47;;
6479;SDS011;71753;48.772;9.148;2024-02-26T14:42:25;1.10;;;1.00;;
6479;SDS011;71753;48.772;9.148;2024-02-26T14:44:51;1.37;;;0.93;;
6479;SDS011;71753;48.772;9.148;2024-02-26T14:47:18;3.00;;;1.20;;
6479;SDS011;71753;48.772;9.148;2024-02-26T14:49:46;1.40;;;1.30;;
6479;SDS011;71753;48.772;9.148;2024-02-26T14:52:13;2.10;;;1.27;;
6479;SDS011;71753;48.772;9.148;2024-02-26T14:54:40;1.27;;;1.10;;
6479;SDS011;71753;48.772;9.148;2024-02-26T14:57:07;1.20;;;1.10;;
6479;SDS011;71753;48.772;9.148;2024-02-26T14:59:34;1.17;;;1.07;;
6479;SDS011;71753;48.772;9.148;2024-02-26T15:02:01;1.17;;;1.07;;